Amery, Wisconsin
Current Conditions -  °F | °C
As of 4:35 AM on Tuesday 27 Jan 2015 (Local Time) from KRNH Reporting Station
Overcast Overcast  
Wind Chill: 23°   Ceiling: 1900
Heat Index: 30°   Visibility: 10mi
Dew Point: 24°   Wind: 8mph
Humidity: 79%   Direction: 20°NNE
Pressure: 30.08"   Gusts: NA
Location:  45.31°N, 92.36°W
Report Text: KRNH 271035Z AUTO 02007KT 10SM OVC019 M01/M04 A3008 RMK AO2 T10101043
Loading
Personal Weather Stations






























Interactive Weather Map New forecast layout! Learn more

10-Day Weather Forecast

Advertisements
Track Severe Weather on mobile